Impacts TAF Board INFO
FOR SITUATIONAL AWARENESS. NOT TO BE USED FOR FLIGHT PLANNING PURPOSES.
IDs:

KLGA - New York/La Guardia, NY, US

Issued at 0522 UTC 21 Feb 2017
Updated at 0728 UTC 21 Feb 2017
Potential Impact None Slight Moderate High
Time0651Z 21/08Z 21/09Z 21/10Z 21/11Z 21/12Z 21/13Z 21/14Z 21/15Z 21/16Z 21/17Z 21/18Z 21/19Z 21/20Z
Type OBS PRVL PRVL PRVL PRVL PRVL PRVL PRVL PRVL PRVL PRVL PRVL PRVL PRVL
VIS 10 >6 >6 >6 >6 >6 >6 >6 >6 >6 >6 >6 >6 >6
CIG -- -- -- -- -- -- -- 250 250 250 250 250 250 250
Cover FEW FEW FEW FEW FEW FEW FEW BKN BKN BKN BKN BKN BKN BKN
FltCat VFR VFR VFR VFR VFR VFR VFR VFR VFR VFR VFR VFR VFR VFR
WX -- -- -- -- -- -- -- -- -- -- -- -- -- --
WDir 40 40 40 40 40 40 40 120 120 120 120 120 120 120
WSpd 6 7 7 7 7 7 7 6 6 6 6 6 6 6
WGst -- -- -- -- -- -- -- -- -- -- -- -- -- --

Raw TAF
KLGA 210522Z 2106/2206 04007KT P6SM FEW250
  FM211400 12006KT P6SM BKN250
  FM212100 16007KT P6SM OVC200
  FM220100 18006KT P6SM BKN120


Raw METAR
KLGA 210651Z 04006KT 10SM FEW250 04/M11 A3037 RMK AO2 SLP285 T00391111 $
KLGA 210551Z 03006KT 10SM FEW250 04/M11 A3037 RMK AO2 SLP283 T00441111 10089 20044 53009 $
KLGA 210451Z 04006KT 10SM FEW250 05/M10 A3036 RMK AO2 SLP279 T00501100 401280050 $

METAR Board
Radar Display
Forecast Discussion

FOR SITUATIONAL AWARENESS. NOT TO BE USED FOR FLIGHT PLANNING PURPOSES.

Page loaded:  07:28 UTC  |   11:28 PM Pacific  |   12:28 AM Mountain  |   01:28 AM Central  |   02:28 AM Eastern

 

ADVISORIES

FORECASTS

FORECASTS

OBSERVATIONS

USER TOOLS

ABOUT US